createdAt,value
2018-08-23T00:00:59.660Z,76.31
2018-08-23T00:01:59.648Z,76.31
2018-08-23T00:02:59.766Z,75.91
2018-08-23T00:03:59.675Z,75.91
2018-08-23T00:04:59.616Z,76.71
2018-08-23T00:05:59.604Z,76.61
2018-08-23T00:06:59.603Z,76.25
2018-08-23T00:07:59.587Z,77.35
2018-08-23T00:08:59.597Z,77.45
2018-08-23T00:09:59.611Z,77.65
2018-08-23T00:10:59.551Z,77.05
2018-08-23T00:11:59.539Z,77.35
2018-08-23T00:12:59.521Z,77.35
2018-08-23T00:13:59.536Z,76.95
2018-08-23T00:14:59.526Z,77.55
2018-08-23T00:15:59.521Z,77.45
2018-08-23T00:16:59.484Z,77.75
2018-08-23T00:17:59.469Z,77.35
2018-08-23T00:18:59.556Z,77.45
2018-08-23T00:19:59.445Z,77.45
2018-08-23T00:20:59.455Z,77.25
2018-08-23T00:21:59.426Z,77.05
2018-08-23T00:22:59.415Z,76.85
2018-08-23T00:23:59.411Z,77.05
2018-08-23T00:24:59.424Z,77.25
2018-08-23T00:25:59.390Z,77.15
2018-08-23T00:26:59.461Z,77.25
2018-08-23T00:27:59.394Z,76.95
2018-08-23T00:28:59.367Z,76.98
2018-08-23T00:29:59.355Z,76.98
2018-08-23T00:30:59.325Z,77.09
2018-08-23T00:31:59.311Z,77.19
2018-08-23T00:32:59.326Z,77.19
2018-08-23T00:33:59.288Z,77.59
2018-08-23T00:34:59.294Z,78.09
2018-08-23T00:35:59.268Z,77.59
2018-08-23T00:36:59.252Z,77.99
2018-08-23T00:37:59.281Z,78.09
2018-08-23T00:38:59.265Z,77.79
2018-08-23T00:39:59.251Z,77.79
2018-08-23T00:40:59.228Z,78.03
2018-08-23T00:41:59.237Z,77.89
2018-08-23T00:42:59.239Z,78.39
2018-08-23T00:43:59.208Z,77.72
2018-08-23T00:44:59.165Z,78.42
2018-08-23T00:45:59.163Z,78.39
2018-08-23T00:46:59.152Z,78.22
2018-08-23T00:47:59.132Z,77.83
2018-08-23T00:48:59.163Z,78.73
2018-08-23T00:49:59.106Z,78.22
2018-08-23T00:50:59.105Z,79.03
2018-08-23T00:51:59.125Z,79.06
2018-08-23T00:52:59.084Z,79.37
2018-08-23T00:53:59.063Z,78.93
2018-08-23T00:54:59.068Z,78.83
2018-08-23T00:55:59.044Z,79.06
2018-08-23T00:56:59.062Z,79.17
2018-08-23T00:57:59.022Z,79.17
2018-08-23T00:58:59.028Z,79.17
2018-08-23T00:59:59.039Z,79.17
2018-08-23T01:00:58.986Z,79.47
2018-08-23T01:01:58.994Z,79.17
2018-08-23T01:02:58.991Z,79.06
2018-08-23T01:03:58.977Z,79.06
2018-08-23T01:04:58.938Z,79.57
2018-08-23T01:05:58.938Z,79.17
2018-08-23T01:06:58.918Z,79.06
2018-08-23T01:07:58.904Z,79.27
2018-08-23T01:08:58.923Z,78.97
2018-08-23T01:09:58.884Z,79.06
2018-08-23T01:10:58.869Z,79.61
2018-08-23T01:11:58.865Z,79.67
2018-08-23T01:12:58.850Z,79.41
2018-08-23T01:13:58.868Z,80.01
2018-08-23T01:14:58.944Z,79.81
2018-08-23T01:15:58.857Z,79.81
2018-08-23T01:16:58.837Z,80.11
2018-08-23T01:17:58.800Z,80.11
2018-08-23T01:18:58.778Z,80.11
2018-08-23T01:19:58.813Z,80.01
2018-08-23T01:20:58.756Z,80.71
2018-08-23T01:21:58.747Z,80.71
2018-08-23T01:22:58.786Z,80.55
2018-08-23T01:23:58.729Z,80.75
2018-08-23T01:24:58.749Z,80.01
2018-08-23T01:25:58.702Z,80.35
2018-08-23T01:26:58.688Z,80.85
2018-08-23T01:27:58.684Z,80.95
2018-08-23T01:28:58.695Z,81.05
2018-08-23T01:29:58.672Z,80.85
2018-08-23T01:30:58.657Z,81.26
2018-08-23T01:31:58.676Z,81.26
2018-08-23T01:32:58.622Z,80.75
2018-08-23T01:33:58.649Z,81.49
2018-08-23T01:34:58.617Z,81.59
2018-08-23T01:35:58.630Z,81.49
2018-08-23T01:36:58.598Z,81.79
2018-08-23T01:37:58.568Z,81.99
2018-08-23T01:38:58.574Z,81.70
2018-08-23T01:39:58.583Z,81.99
2018-08-23T01:40:58.566Z,81.90
2018-08-23T01:41:58.536Z,81.99
2018-08-23T01:42:58.514Z,81.79
2018-08-23T01:43:58.502Z,81.99
2018-08-23T01:44:58.524Z,81.99
2018-08-23T01:45:58.486Z,81.90
2018-08-23T01:46:58.470Z,81.53
2018-08-23T01:47:58.469Z,82.04
2018-08-23T01:48:58.444Z,83.04
2018-08-23T01:49:58.474Z,82.94
2018-08-23T01:50:58.427Z,82.84
2018-08-23T01:51:58.414Z,82.64
2018-08-23T01:52:58.404Z,82.64
2018-08-23T01:53:58.405Z,82.94
2018-08-23T01:54:58.512Z,82.84
2018-08-23T01:55:58.400Z,82.84
2018-08-23T01:56:58.362Z,83.28
2018-08-23T01:57:58.355Z,83.28
2018-08-23T01:58:58.345Z,83.79
2018-08-23T01:59:58.325Z,83.99
2018-08-23T02:00:58.347Z,83.48
2018-08-23T02:01:58.307Z,83.89
2018-08-23T02:02:58.290Z,83.79
2018-08-23T02:03:58.309Z,84.19
2018-08-23T02:04:58.281Z,84.09
2018-08-23T02:05:58.263Z,84.69
2018-08-23T02:06:58.278Z,84.49
2018-08-23T02:07:58.249Z,84.29
2018-08-23T02:08:58.251Z,84.19
2018-08-23T02:09:58.216Z,84.39
2018-08-23T02:10:58.210Z,84.39
2018-08-23T02:11:58.191Z,84.69
2018-08-23T02:12:58.179Z,84.19
2018-08-23T02:13:58.199Z,84.19
2018-08-23T02:14:58.155Z,84.19
2018-08-23T02:15:58.177Z,84.19
2018-08-23T02:16:58.169Z,84.23
2018-08-23T02:17:58.155Z,84.43
2018-08-23T02:18:58.163Z,84.33
2018-08-23T02:19:58.100Z,84.29
2018-08-23T02:20:58.090Z,84.23
2018-08-23T02:21:58.078Z,84.13
2018-08-23T02:22:58.122Z,84.23
2018-08-23T02:23:58.066Z,84.23
2018-08-23T02:24:58.042Z,84.33
2018-08-23T02:25:58.032Z,84.43
2018-08-23T02:26:58.025Z,84.23
2018-08-23T02:27:58.052Z,84.23
2018-08-23T02:28:58.002Z,84.63
2018-08-23T02:29:57.986Z,84.53
2018-08-23T02:30:57.982Z,84.43
2018-08-23T02:31:57.969Z,84.43
2018-08-23T02:32:57.994Z,84.03
2018-08-23T02:33:57.953Z,83.83
2018-08-23T02:34:57.950Z,83.83
2018-08-23T02:35:57.926Z,83.62
2018-08-23T02:36:57.913Z,83.72
2018-08-23T02:37:57.985Z,83.83
2018-08-23T02:38:57.895Z,83.72
2018-08-23T02:39:57.878Z,83.83
2018-08-23T02:40:57.882Z,83.87
2018-08-23T02:41:57.882Z,83.72
2018-08-23T02:42:57.845Z,84.63
2018-08-23T02:43:57.866Z,84.37
2018-08-23T02:44:57.825Z,84.74
2018-08-23T02:45:57.843Z,84.17
2018-08-23T02:46:57.804Z,84.33
2018-08-23T02:47:57.792Z,84.33
2018-08-23T02:48:57.776Z,84.23
2018-08-23T02:49:57.793Z,84.03
2018-08-23T02:50:57.749Z,83.87
2018-08-23T02:51:57.746Z,83.72
2018-08-23T02:52:57.733Z,83.76
2018-08-23T02:53:57.777Z,83.83
2018-08-23T02:54:57.717Z,83.87
2018-08-23T02:55:57.708Z,83.87
2018-08-23T02:56:57.702Z,83.83
2018-08-23T02:57:57.681Z,83.56
2018-08-23T02:58:57.665Z,83.06
2018-08-23T02:59:57.678Z,83.32
2018-08-23T03:00:57.637Z,83.36
2018-08-23T03:01:57.643Z,83.66
2018-08-23T03:02:57.619Z,83.76
2018-08-23T03:03:57.612Z,83.87
2018-08-23T03:04:57.723Z,83.97
2018-08-23T03:05:57.586Z,83.87
2018-08-23T03:06:57.574Z,83.76
2018-08-23T03:07:57.579Z,84.17
2018-08-23T03:08:57.551Z,84.11
2018-08-23T03:09:57.564Z,84.67
2018-08-23T03:10:57.530Z,84.77
2018-08-23T03:11:57.520Z,84.61
2018-08-23T03:12:57.509Z,84.51
2018-08-23T03:13:57.524Z,84.51
2018-08-23T03:14:57.569Z,84.61
2018-08-23T03:15:57.507Z,84.51
2018-08-23T03:16:57.464Z,84.41
2018-08-23T03:17:57.461Z,84.61
2018-08-23T03:18:57.446Z,84.51
2018-08-23T03:19:57.477Z,84.11
2018-08-23T03:20:57.416Z,84.71
2018-08-23T03:21:57.413Z,84.11
2018-08-23T03:22:57.392Z,83.70
2018-08-23T03:23:57.440Z,83.80
2018-08-23T03:24:57.370Z,83.91
2018-08-23T03:25:57.404Z,83.91
2018-08-23T03:26:57.360Z,83.70
2018-08-23T03:27:57.341Z,83.50
2018-08-23T03:28:57.324Z,83.80
2018-08-23T03:29:57.314Z,83.70
2018-08-23T03:30:57.404Z,83.91
2018-08-23T03:31:57.295Z,83.80
2018-08-23T03:32:57.308Z,84.21
2018-08-23T03:33:57.282Z,84.81
2018-08-23T03:34:57.261Z,83.70
2018-08-23T03:35:57.248Z,84.21
2018-08-23T03:36:57.238Z,83.91
2018-08-23T03:37:57.290Z,83.91
2018-08-23T03:38:57.210Z,84.21
2018-08-23T03:39:57.205Z,84.31
2018-08-23T03:40:57.190Z,83.80
2018-08-23T03:41:57.183Z,83.80
2018-08-23T03:42:57.208Z,84.81
2018-08-23T03:43:57.162Z,84.71
2018-08-23T03:44:57.178Z,84.41
2018-08-23T03:45:57.130Z,84.61
2018-08-23T03:46:57.129Z,84.45
2018-08-23T03:47:57.142Z,83.95
2018-08-23T03:48:57.102Z,84.65
2018-08-23T03:49:57.090Z,84.95
2018-08-23T03:50:57.078Z,84.95
2018-08-23T03:51:57.094Z,84.35
2018-08-23T03:52:57.056Z,84.85
2018-08-23T03:53:57.081Z,84.55
2018-08-23T03:54:57.117Z,85.05
2018-08-23T03:55:57.073Z,84.95
2018-08-23T03:56:57.047Z,85.19
2018-08-23T03:57:57.000Z,85.50
2018-08-23T03:58:56.990Z,85.50
2018-08-23T03:59:56.979Z,85.70
2018-08-23T04:00:56.963Z,85.60
2018-08-23T04:01:56.998Z,85.80
2018-08-23T04:02:56.944Z,85.80
2018-08-23T04:03:56.933Z,85.90
2018-08-23T04:04:56.919Z,85.40
2018-08-23T04:05:56.948Z,86.00
2018-08-23T04:06:56.903Z,85.60
2018-08-23T04:07:56.893Z,86.21
2018-08-23T04:08:56.875Z,85.94
2018-08-23T04:09:56.864Z,85.64
2018-08-23T04:10:56.965Z,86.95
2018-08-23T04:11:56.846Z,86.55
2018-08-23T04:12:56.839Z,86.65
2018-08-23T04:13:56.834Z,86.45
2018-08-23T04:14:56.833Z,86.35
2018-08-23T04:15:56.866Z,86.45
2018-08-23T04:16:56.789Z,86.65
2018-08-23T04:17:56.847Z,86.30
2018-08-23T04:18:56.790Z,86.55
2018-08-23T04:19:56.752Z,86.41
2018-08-23T04:20:56.819Z,86.45
2018-08-23T04:21:56.729Z,86.65
2018-08-23T04:22:56.750Z,86.65
2018-08-23T04:23:56.708Z,86.55
2018-08-23T04:24:56.698Z,86.55
2018-08-23T04:25:56.840Z,86.55
2018-08-23T04:26:56.686Z,86.65
2018-08-23T04:27:56.666Z,86.55
2018-08-23T04:28:56.648Z,86.25
2018-08-23T04:29:56.680Z,85.54
2018-08-23T04:30:56.666Z,86.15
2018-08-23T04:31:56.652Z,85.94
2018-08-23T04:32:56.612Z,85.94
2018-08-23T04:33:56.633Z,85.74
2018-08-23T04:34:56.587Z,86.00
2018-08-23T04:35:56.584Z,86.15
2018-08-23T04:36:56.590Z,85.94
2018-08-23T04:37:56.554Z,86.04
2018-08-23T04:38:56.656Z,85.94
2018-08-23T04:39:56.559Z,85.90
2018-08-23T04:40:56.554Z,85.94
2018-08-23T04:41:56.508Z,85.84
2018-08-23T04:42:56.516Z,85.94
2018-08-23T04:43:56.490Z,85.94
2018-08-23T04:44:56.506Z,85.84
2018-08-23T04:45:56.510Z,85.94
2018-08-23T04:46:56.454Z,85.94
2018-08-23T04:47:56.492Z,85.94
2018-08-23T04:48:56.493Z,85.44
2018-08-23T04:49:56.419Z,85.94
2018-08-23T04:50:56.457Z,86.00
2018-08-23T04:51:56.458Z,86.15
2018-08-23T04:52:56.418Z,86.04
2018-08-23T04:53:56.419Z,85.84
2018-08-23T04:54:56.362Z,85.64
2018-08-23T04:55:56.357Z,85.74
2018-08-23T04:56:56.363Z,86.04
2018-08-23T04:57:56.363Z,85.84
2018-08-23T04:58:56.322Z,86.04
2018-08-23T04:59:56.310Z,85.94
2018-08-23T05:00:56.323Z,85.94
2018-08-23T05:01:56.285Z,86.04
2018-08-23T05:02:56.278Z,85.94
2018-08-23T05:03:56.321Z,85.84
2018-08-23T05:04:56.254Z,85.94
2018-08-23T05:05:56.241Z,85.94
2018-08-23T05:06:56.275Z,86.04
2018-08-23T05:07:56.218Z,85.74
2018-08-23T05:08:56.209Z,85.74
2018-08-23T05:09:56.241Z,85.64
2018-08-23T05:10:56.193Z,86.25
2018-08-23T05:11:56.209Z,85.44
2018-08-23T05:12:56.159Z,85.44
2018-08-23T05:13:56.155Z,86.04
2018-08-23T05:14:56.148Z,85.94
2018-08-23T05:15:56.141Z,86.04
2018-08-23T05:16:56.208Z,85.84
2018-08-23T05:17:56.106Z,85.64
2018-08-23T05:18:56.098Z,86.04
2018-08-23T05:19:56.085Z,85.84
2018-08-23T05:20:56.070Z,85.64
2018-08-23T05:21:56.103Z,86.65
2018-08-23T05:22:56.094Z,85.54
2018-08-23T05:23:56.075Z,86.55
2018-08-23T05:24:56.060Z,86.95
2018-08-23T05:25:56.032Z,86.25
2018-08-23T05:26:56.010Z,86.35
2018-08-23T05:27:56.031Z,86.55
2018-08-23T05:28:55.989Z,86.55
2018-08-23T05:29:56.163Z,86.65
2018-08-23T05:30:55.982Z,85.54
2018-08-23T05:31:55.963Z,85.50
2018-08-23T05:32:55.967Z,85.70
2018-08-23T05:33:55.960Z,86.10
2018-08-23T05:34:55.919Z,86.71
2018-08-23T05:35:55.916Z,85.40
2018-08-23T05:36:55.939Z,85.90
2018-08-23T05:37:55.957Z,85.50
2018-08-23T05:38:55.918Z,86.00
2018-08-23T05:39:55.913Z,85.50
2018-08-23T05:40:55.856Z,86.61
2018-08-23T05:41:55.846Z,86.61
2018-08-23T05:42:55.884Z,86.91
2018-08-23T05:43:55.825Z,86.41
2018-08-23T05:44:55.837Z,86.47
2018-08-23T05:45:55.800Z,86.30
2018-08-23T05:46:55.882Z,86.57
2018-08-23T05:47:55.779Z,86.43
2018-08-23T05:48:55.789Z,86.02
2018-08-23T05:49:55.803Z,85.22
2018-08-23T05:50:55.752Z,85.42
2018-08-23T05:51:55.730Z,85.11
2018-08-23T05:52:55.716Z,84.91
2018-08-23T05:53:55.742Z,84.41
2018-08-23T05:54:55.704Z,84.61
2018-08-23T05:55:55.692Z,84.31
2018-08-23T05:56:55.678Z,84.61
2018-08-23T05:57:55.723Z,84.01
2018-08-23T05:58:55.711Z,84.11
2018-08-23T05:59:55.637Z,84.61
2018-08-23T06:00:55.630Z,84.31
2018-08-23T06:01:55.646Z,84.17
2018-08-23T06:02:55.632Z,84.88
2018-08-23T06:03:55.624Z,84.37
2018-08-23T06:04:55.588Z,84.77
2018-08-23T06:05:55.652Z,84.77
2018-08-23T06:06:55.592Z,84.27
2018-08-23T06:07:55.586Z,84.17
2018-08-23T06:08:55.534Z,84.47
2018-08-23T06:09:55.524Z,84.37
2018-08-23T06:10:55.513Z,84.27
2018-08-23T06:11:55.537Z,84.07
2018-08-23T06:12:55.538Z,83.76
2018-08-23T06:13:55.537Z,84.27
2018-08-23T06:14:55.477Z,84.23
2018-08-23T06:15:55.472Z,84.23
2018-08-23T06:16:55.485Z,84.67
2018-08-23T06:17:55.434Z,84.57
2018-08-23T06:18:55.426Z,84.43
2018-08-23T06:19:55.481Z,84.43
2018-08-23T06:20:55.428Z,84.74
2018-08-23T06:21:55.429Z,84.83
2018-08-23T06:22:55.386Z,83.62
2018-08-23T06:23:55.369Z,83.59
2018-08-23T06:24:55.412Z,83.48
2018-08-23T06:25:55.370Z,83.59
2018-08-23T06:26:55.354Z,83.69
2018-08-23T06:27:55.364Z,83.69
2018-08-23T06:28:55.315Z,83.79
2018-08-23T06:29:55.923Z,83.79
2018-08-23T06:30:55.309Z,83.84
2018-08-23T06:31:55.281Z,83.75
2018-08-23T06:32:55.390Z,83.65
2018-08-23T06:33:55.297Z,83.34
2018-08-23T06:34:55.263Z,83.00
2018-08-23T06:35:55.247Z,82.90
2018-08-23T06:36:55.226Z,83.00
2018-08-23T06:37:55.309Z,83.00
2018-08-23T06:38:55.210Z,82.66
2018-08-23T06:39:55.202Z,82.76
2018-08-23T06:40:55.194Z,83.06
2018-08-23T06:41:55.205Z,83.06
2018-08-23T06:42:55.162Z,83.26
2018-08-23T06:43:55.189Z,83.26
2018-08-23T06:44:55.138Z,83.06
2018-08-23T06:45:55.144Z,83.12
2018-08-23T06:46:55.110Z,83.03
2018-08-23T06:47:55.114Z,82.82
2018-08-23T06:48:55.156Z,82.62
2018-08-23T06:49:55.088Z,82.52
2018-08-23T06:50:55.067Z,82.62
2018-08-23T06:51:55.103Z,82.72
2018-08-23T06:52:55.048Z,81.72
2018-08-23T06:53:55.073Z,82.02
2018-08-23T06:54:55.069Z,82.02
2018-08-23T06:55:55.017Z,81.72
2018-08-23T06:56:55.010Z,81.58
2018-08-23T06:57:55.028Z,81.52
2018-08-23T06:58:55.039Z,81.68
2018-08-23T06:59:54.968Z,81.82
2018-08-23T07:00:54.996Z,81.82
2018-08-23T07:01:55.001Z,81.58
2018-08-23T07:02:54.934Z,81.78
2018-08-23T07:03:54.920Z,81.18
2018-08-23T07:04:54.922Z,81.07
2018-08-23T07:05:54.945Z,81.27
2018-08-23T07:06:54.932Z,80.98
2018-08-23T07:07:54.907Z,80.63
2018-08-23T07:08:54.897Z,80.77
2018-08-23T07:09:54.876Z,80.63
2018-08-23T07:10:54.899Z,80.54
2018-08-23T07:11:54.929Z,80.54
2018-08-23T07:12:54.824Z,80.04
2018-08-23T07:13:54.951Z,79.93
2018-08-23T07:14:54.811Z,79.83
2018-08-23T07:15:54.834Z,79.63
2018-08-23T07:16:54.817Z,79.29
2018-08-23T07:17:54.794Z,79.19
2018-08-23T07:18:54.809Z,79.19
2018-08-23T07:19:54.745Z,78.59
2018-08-23T07:20:54.748Z,79.09
2018-08-23T07:21:54.758Z,78.89
2018-08-23T07:22:54.712Z,77.95
2018-08-23T07:23:54.742Z,77.65
2018-08-23T07:24:54.691Z,77.45
2018-08-23T07:25:54.750Z,77.15
2018-08-23T07:26:54.673Z,77.45
2018-08-23T07:27:54.661Z,77.41
2018-08-23T07:28:54.732Z,76.85
2018-08-23T07:29:54.720Z,76.81
2018-08-23T07:30:54.623Z,76.91
2018-08-23T07:31:54.607Z,76.81
2018-08-23T07:32:54.610Z,77.11
2018-08-23T07:33:54.619Z,76.51
2018-08-23T07:34:54.579Z,75.67
2018-08-23T07:35:54.593Z,75.97
2018-08-23T07:36:54.568Z,75.57
2018-08-23T07:37:54.567Z,75.67
2018-08-23T07:38:54.559Z,75.47
2018-08-23T07:39:54.520Z,75.17
2018-08-23T07:40:54.511Z,75.37
2018-08-23T07:41:54.545Z,75.67
2018-08-23T07:42:54.586Z,74.67
2018-08-23T07:43:54.481Z,74.67
2018-08-23T07:44:54.476Z,74.93
2018-08-23T07:45:54.502Z,74.93
2018-08-23T07:46:54.451Z,74.84
2018-08-23T07:47:54.433Z,74.43
2018-08-23T07:48:54.459Z,74.54
2018-08-23T07:49:54.409Z,74.20
2018-08-23T07:50:54.443Z,74.30
2018-08-23T07:51:54.395Z,74.20
2018-08-23T07:52:54.528Z,74.10
2018-08-23T07:53:54.382Z,73.90
2018-08-23T07:54:54.358Z,74.06
2018-08-23T07:55:54.382Z,73.56
2018-08-23T07:56:54.376Z,73.56
2018-08-23T07:57:54.319Z,73.16
2018-08-23T07:58:54.311Z,73.33
2018-08-23T07:59:54.296Z,73.06
2018-08-23T08:00:54.283Z,73.03
2018-08-23T08:01:54.312Z,72.23
2018-08-23T08:02:54.310Z,72.72
2018-08-23T08:03:54.253Z,73.03
2018-08-23T08:04:54.264Z,72.63
2018-08-23T08:05:54.228Z,72.83
2018-08-23T08:06:54.220Z,72.83
2018-08-23T08:07:54.263Z,71.89
2018-08-23T08:08:54.258Z,71.79
2018-08-23T08:09:54.188Z,72.99
2018-08-23T08:10:54.173Z,72.92
2018-08-23T08:11:54.165Z,71.99
2018-08-23T08:12:54.187Z,71.99
2018-08-23T08:13:54.141Z,71.69
2018-08-23T08:14:54.235Z,71.49
2018-08-23T08:15:54.150Z,71.19
2018-08-23T08:16:54.117Z,71.59
2018-08-23T08:17:54.103Z,71.06
2018-08-23T08:18:54.119Z,71.26
2018-08-23T08:19:54.075Z,70.36
2018-08-23T08:20:54.092Z,70.86
2018-08-23T08:21:54.080Z,71.06
2018-08-23T08:22:54.096Z,70.86
2018-08-23T08:23:54.033Z,70.36
2018-08-23T08:24:54.079Z,70.26
2018-08-23T08:25:54.048Z,71.03
2018-08-23T08:26:54.001Z,70.53
2018-08-23T08:27:53.986Z,69.82
2018-08-23T08:28:53.989Z,69.62
2018-08-23T08:29:53.971Z,70.03
2018-08-23T08:30:53.977Z,69.43
2018-08-23T08:31:53.940Z,68.82
2018-08-23T08:32:53.960Z,68.70
2018-08-23T08:33:53.918Z,68.49
2018-08-23T08:34:53.905Z,69.49
2018-08-23T08:35:53.940Z,69.09
2018-08-23T08:36:53.889Z,69.20
2018-08-23T08:37:53.879Z,67.49
2018-08-23T08:38:53.876Z,68.29
2018-08-23T08:39:53.849Z,68.49
2018-08-23T08:40:53.883Z,68.49
2018-08-23T08:41:53.848Z,69.66
2018-08-23T08:42:53.822Z,68.56
2018-08-23T08:43:53.808Z,68.96
2018-08-23T08:44:53.812Z,68.86
2018-08-23T08:45:53.825Z,68.06
2018-08-23T08:46:53.785Z,68.53
2018-08-23T08:47:53.816Z,67.43
2018-08-23T08:48:53.806Z,67.83
2018-08-23T08:49:53.747Z,67.23
2018-08-23T08:50:53.739Z,67.23
2018-08-23T08:51:53.759Z,67.63
2018-08-23T08:52:53.709Z,67.53
2018-08-23T08:53:53.707Z,67.10
2018-08-23T08:54:53.715Z,66.10
2018-08-23T08:55:53.709Z,66.00
2018-08-23T08:56:53.828Z,65.80
2018-08-23T08:57:53.676Z,65.91
2018-08-23T08:58:53.647Z,66.00
2018-08-23T08:59:53.636Z,65.91
2018-08-23T09:00:53.672Z,66.00
2018-08-23T09:01:53.639Z,65.87
2018-08-23T09:02:53.610Z,66.10
2018-08-23T09:03:53.587Z,65.91
2018-08-23T09:04:53.584Z,65.37
2018-08-23T09:05:53.591Z,65.47
2018-08-23T09:06:53.600Z,65.57
2018-08-23T09:07:53.544Z,65.77
2018-08-23T09:08:53.543Z,65.57
2018-08-23T09:09:53.619Z,64.78
2018-08-23T09:10:53.510Z,64.78
2018-08-23T09:11:53.543Z,64.58
2018-08-23T09:12:53.482Z,64.37
2018-08-23T09:13:53.471Z,64.58
2018-08-23T09:14:53.467Z,64.67
2018-08-23T09:15:53.455Z,64.18
2018-08-23T09:16:53.471Z,63.78
2018-08-23T09:17:53.432Z,63.91
2018-08-23T09:18:53.481Z,64.11
2018-08-23T09:19:53.442Z,64.67
2018-08-23T09:20:53.522Z,64.81
2018-08-23T09:21:53.386Z,64.78
2018-08-23T09:22:53.377Z,64.18
2018-08-23T09:23:53.364Z,64.37
2018-08-23T09:24:53.387Z,64.18
2018-08-23T09:25:53.340Z,63.65
2018-08-23T09:26:53.345Z,63.45
2018-08-23T09:27:53.330Z,63.12
2018-08-23T09:28:53.305Z,62.72
2018-08-23T09:29:53.325Z,62.42
2018-08-23T09:30:53.283Z,62.52
2018-08-23T09:31:53.344Z,62.62
2018-08-23T09:32:53.276Z,62.32
2018-08-23T09:33:53.253Z,63.19
2018-08-23T09:34:53.286Z,61.69
2018-08-23T09:35:53.228Z,61.99
2018-08-23T09:36:53.250Z,61.99
2018-08-23T09:37:53.273Z,62.10
2018-08-23T09:38:53.210Z,61.90
2018-08-23T09:39:53.199Z,61.93
2018-08-23T09:40:53.198Z,61.43
2018-08-23T09:41:53.159Z,61.53
2018-08-23T09:42:53.164Z,61.33
2018-08-23T09:43:53.140Z,61.63
2018-08-23T09:44:53.207Z,60.93
2018-08-23T09:45:53.145Z,60.73
2018-08-23T09:46:53.111Z,61.85
2018-08-23T09:47:53.093Z,60.83
2018-08-23T09:48:53.119Z,61.66
2018-08-23T09:49:53.071Z,60.93
2018-08-23T09:50:53.149Z,60.86
2018-08-23T09:51:53.058Z,60.66
2018-08-23T09:52:53.045Z,60.24
2018-08-23T09:53:53.031Z,60.13
2018-08-23T09:54:53.014Z,60.86
2018-08-23T09:55:53.061Z,61.36
2018-08-23T09:56:53.017Z,61.46
2018-08-23T09:57:52.984Z,61.55
2018-08-23T09:58:52.993Z,60.56
2018-08-23T09:59:52.974Z,60.53
2018-08-23T10:00:53.075Z,60.53
2018-08-23T10:01:52.941Z,60.73
2018-08-23T10:02:52.936Z,60.33
2018-08-23T10:03:52.919Z,60.03
2018-08-23T10:04:52.916Z,60.33
2018-08-23T10:05:52.936Z,60.53
2018-08-23T10:06:52.881Z,60.30
2018-08-23T10:07:52.878Z,60.11
2018-08-23T10:08:52.875Z,60.11
2018-08-23T10:09:52.858Z,60.00
2018-08-23T10:10:52.877Z,60.08
2018-08-23T10:11:52.918Z,59.58
2018-08-23T10:12:52.823Z,58.98
2018-08-23T10:13:52.842Z,57.26
2018-08-23T10:14:52.812Z,58.26
2018-08-23T10:15:52.790Z,56.94
2018-08-23T10:16:52.870Z,57.64
2018-08-23T10:17:52.770Z,55.85
2018-08-23T10:18:52.763Z,56.12
2018-08-23T10:19:52.755Z,55.12
2018-08-23T10:20:52.740Z,55.52
2018-08-23T10:21:52.755Z,55.62
2018-08-23T10:22:52.742Z,55.49
2018-08-23T10:23:52.700Z,55.89
2018-08-23T10:24:52.692Z,55.79
2018-08-23T10:25:52.678Z,56.09
2018-08-23T10:26:52.682Z,55.79
2018-08-23T10:27:52.688Z,55.79
2018-08-23T10:28:52.645Z,55.59
2018-08-23T10:29:52.636Z,55.99
2018-08-23T10:30:52.621Z,55.79
2018-08-23T10:31:52.612Z,55.91
2018-08-23T10:32:52.647Z,56.12
2018-08-23T10:33:52.594Z,56.44
2018-08-23T10:34:52.579Z,55.94
2018-08-23T10:35:52.563Z,56.54
2018-08-23T10:36:52.555Z,56.67
2018-08-23T10:37:52.591Z,56.77
2018-08-23T10:38:52.542Z,57.46
2018-08-23T10:39:52.526Z,56.96
2018-08-23T10:40:52.573Z,57.46
2018-08-23T10:41:52.498Z,57.66
2018-08-23T10:42:52.502Z,57.86
2018-08-23T10:43:52.513Z,58.36
2018-08-23T10:44:52.468Z,58.36
2018-08-23T10:45:52.461Z,57.26
2018-08-23T10:46:52.445Z,58.36
2018-08-23T10:47:52.430Z,58.13
2018-08-23T10:48:52.448Z,57.64
2018-08-23T10:49:52.409Z,58.20
2018-08-23T10:50:52.428Z,56.64
2018-08-23T10:51:52.423Z,57.11
2018-08-23T10:52:52.375Z,56.51
2018-08-23T10:53:52.369Z,56.41
2018-08-23T10:54:52.353Z,56.71
2018-08-23T10:55:52.349Z,56.12
2018-08-23T10:56:52.416Z,56.09
2018-08-23T10:57:52.331Z,55.99
2018-08-23T10:58:52.384Z,56.49
2018-08-23T10:59:52.302Z,55.79
2018-08-23T11:00:52.346Z,55.99
2018-08-23T11:01:52.275Z,55.96
2018-08-23T11:02:52.294Z,55.87
2018-08-23T11:03:52.251Z,55.96
2018-08-23T11:04:52.242Z,55.76
2018-08-23T11:05:52.262Z,56.36
2018-08-23T11:06:52.249Z,56.36
2018-08-23T11:07:52.211Z,56.29
2018-08-23T11:08:52.216Z,56.98
2018-08-23T11:09:52.260Z,56.38
2018-08-23T11:10:52.175Z,56.19
2018-08-23T11:11:52.212Z,56.59
2018-08-23T11:12:52.165Z,56.59
2018-08-23T11:13:52.141Z,56.68
2018-08-23T11:14:52.155Z,56.88
2018-08-23T11:15:52.128Z,56.59
2018-08-23T11:16:52.244Z,56.78
2018-08-23T11:17:52.994Z,55.96
2018-08-23T11:18:52.091Z,55.96
2018-08-23T11:19:52.118Z,55.15
2018-08-23T11:20:52.072Z,55.47
2018-08-23T11:21:52.072Z,55.66
2018-08-23T11:22:52.054Z,55.64
2018-08-23T11:23:52.038Z,55.64
2018-08-23T11:24:52.062Z,55.54
2018-08-23T11:25:52.010Z,54.94
2018-08-23T11:26:52.021Z,54.82
2018-08-23T11:27:52.018Z,54.32
2018-08-23T11:28:51.981Z,55.11
2018-08-23T11:29:51.982Z,55.91
2018-08-23T11:30:51.965Z,55.61
2018-08-23T11:31:51.988Z,55.71
2018-08-23T11:32:51.965Z,55.34
2018-08-23T11:33:51.967Z,55.83
2018-08-23T11:34:51.912Z,56.16
2018-08-23T11:35:51.904Z,56.56
2018-08-23T11:36:52.515Z,56.56
2018-08-23T11:37:51.882Z,56.49
2018-08-23T11:38:51.909Z,56.49
2018-08-23T11:39:51.869Z,57.28
2018-08-23T11:40:51.852Z,57.28
2018-08-23T11:41:51.840Z,57.38
2018-08-23T11:42:51.883Z,57.31
2018-08-23T11:43:51.857Z,57.01
2018-08-23T11:44:51.811Z,57.60
2018-08-23T11:45:51.797Z,57.41
2018-08-23T11:46:51.803Z,56.49
2018-08-23T11:47:51.787Z,56.49
2018-08-23T11:48:51.864Z,57.08
2018-08-23T11:49:51.765Z,56.88
2018-08-23T11:50:51.767Z,56.98
2018-08-23T11:51:51.729Z,56.56
2018-08-23T11:52:51.749Z,55.66
2018-08-23T11:53:51.781Z,56.06
2018-08-23T11:54:51.697Z,55.57
2018-08-23T11:55:51.714Z,55.66
2018-08-23T11:56:51.680Z,55.47
2018-08-23T11:57:51.697Z,54.57
2018-08-23T11:58:51.686Z,54.57
2018-08-23T11:59:51.644Z,55.07
2018-08-23T12:00:51.636Z,55.47
2018-08-23T12:01:51.630Z,55.57
2018-08-23T12:02:51.605Z,55.66
2018-08-23T12:03:51.631Z,55.57
2018-08-23T12:04:51.587Z,55.36
2018-08-23T12:05:51.617Z,55.57
2018-08-23T12:06:51.566Z,55.66
2018-08-23T12:07:51.574Z,55.96
2018-08-23T12:08:51.550Z,55.96
2018-08-23T12:09:51.579Z,56.46
2018-08-23T12:10:51.516Z,55.96
2018-08-23T12:11:51.512Z,55.87
2018-08-23T12:12:51.494Z,55.94
